sensor_id;sensor_type;location;lat;lon;timestamp;P1;durP1;ratioP1;P2;durP2;ratioP2
25381;SDS011;16307;42.896;20.874;2024-02-15T00:01:04;63.38;;;29.58;;
25381;SDS011;16307;42.896;20.874;2024-02-15T00:03:50;55.83;;;29.40;;
25381;SDS011;16307;42.896;20.874;2024-02-15T00:06:36;60.13;;;28.65;;
25381;SDS011;16307;42.896;20.874;2024-02-15T00:09:22;62.80;;;27.88;;
25381;SDS011;16307;42.896;20.874;2024-02-15T00:12:08;61.00;;;28.65;;
25381;SDS011;16307;42.896;20.874;2024-02-15T00:14:55;56.65;;;28.33;;
25381;SDS011;16307;42.896;20.874;2024-02-15T00:17:44;58.08;;;27.02;;
25381;SDS011;16307;42.896;20.874;2024-02-15T00:20:32;53.00;;;27.90;;
25381;SDS011;16307;42.896;20.874;2024-02-15T00:23:21;53.95;;;25.40;;
25381;SDS011;16307;42.896;20.874;2024-02-15T00:26:08;54.70;;;26.63;;
25381;SDS011;16307;42.896;20.874;2024-02-15T00:28:57;54.78;;;27.75;;
25381;SDS011;16307;42.896;20.874;2024-02-15T00:31:44;65.03;;;30.05;;
25381;SDS011;16307;42.896;20.874;2024-02-15T00:34:30;57.03;;;29.75;;
25381;SDS011;16307;42.896;20.874;2024-02-15T00:37:16;66.60;;;31.15;;
25381;SDS011;16307;42.896;20.874;2024-02-15T00:40:02;59.47;;;29.75;;
25381;SDS011;16307;42.896;20.874;2024-02-15T00:42:49;53.13;;;27.27;;
25381;SDS011;16307;42.896;20.874;2024-02-15T00:45:35;66.18;;;28.80;;
25381;SDS011;16307;42.896;20.874;2024-02-15T00:48:21;56.45;;;25.70;;
25381;SDS011;16307;42.896;20.874;2024-02-15T00:51:08;60.40;;;27.38;;
25381;SDS011;16307;42.896;20.874;2024-02-15T00:53:54;56.90;;;26.73;;
25381;SDS011;16307;42.896;20.874;2024-02-15T00:56:40;53.65;;;25.95;;
25381;SDS011;16307;42.896;20.874;2024-02-15T00:59:27;47.80;;;24.23;;
25381;SDS011;16307;42.896;20.874;2024-02-15T01:02:13;49.08;;;24.98;;
25381;SDS011;16307;42.896;20.874;2024-02-15T01:04:59;53.40;;;26.08;;
25381;SDS011;16307;42.896;20.874;2024-02-15T01:07:46;50.33;;;23.38;;
25381;SDS011;16307;42.896;20.874;2024-02-15T01:10:34;51.95;;;24.17;;
25381;SDS011;16307;42.896;20.874;2024-02-15T01:13:21;47.17;;;22.73;;
25381;SDS011;16307;42.896;20.874;2024-02-15T01:16:07;48.78;;;23.30;;
25381;SDS011;16307;42.896;20.874;2024-02-15T01:18:53;59.17;;;25.40;;
25381;SDS011;16307;42.896;20.874;2024-02-15T01:21:41;58.65;;;25.35;;
25381;SDS011;16307;42.896;20.874;2024-02-15T01:24:28;56.22;;;24.77;;
25381;SDS011;16307;42.896;20.874;2024-02-15T01:27:16;66.13;;;24.75;;
25381;SDS011;16307;42.896;20.874;2024-02-15T01:30:02;59.17;;;22.85;;
25381;SDS011;16307;42.896;20.874;2024-02-15T01:32:50;56.00;;;23.42;;
25381;SDS011;16307;42.896;20.874;2024-02-15T01:35:37;54.60;;;23.40;;
25381;SDS011;16307;42.896;20.874;2024-02-15T01:38:23;53.58;;;22.42;;
25381;SDS011;16307;42.896;20.874;2024-02-15T01:41:10;49.00;;;22.10;;
25381;SDS011;16307;42.896;20.874;2024-02-15T01:43:56;53.75;;;23.48;;
25381;SDS011;16307;42.896;20.874;2024-02-15T01:46:42;54.13;;;23.98;;
25381;SDS011;16307;42.896;20.874;2024-02-15T01:49:29;57.13;;;25.23;;
25381;SDS011;16307;42.896;20.874;2024-02-15T01:52:15;59.35;;;25.25;;
25381;SDS011;16307;42.896;20.874;2024-02-15T01:55:02;54.80;;;25.30;;
25381;SDS011;16307;42.896;20.874;2024-02-15T01:57:53;46.10;;;22.42;;
25381;SDS011;16307;42.896;20.874;2024-02-15T02:00:39;53.45;;;23.40;;
25381;SDS011;16307;42.896;20.874;2024-02-15T02:03:26;50.28;;;24.05;;
25381;SDS011;16307;42.896;20.874;2024-02-15T02:06:13;51.58;;;23.45;;
25381;SDS011;16307;42.896;20.874;2024-02-15T02:08:59;50.13;;;23.35;;
25381;SDS011;16307;42.896;20.874;2024-02-15T02:11:47;44.45;;;21.50;;
25381;SDS011;16307;42.896;20.874;2024-02-15T02:14:35;60.00;;;22.77;;
25381;SDS011;16307;42.896;20.874;2024-02-15T02:17:21;46.35;;;22.67;;
25381;SDS011;16307;42.896;20.874;2024-02-15T02:20:07;45.22;;;21.48;;
25381;SDS011;16307;42.896;20.874;2024-02-15T02:22:55;47.40;;;21.55;;
25381;SDS011;16307;42.896;20.874;2024-02-15T02:25:49;42.10;;;20.17;;
25381;SDS011;16307;42.896;20.874;2024-02-15T02:28:36;46.50;;;21.65;;
25381;SDS011;16307;42.896;20.874;2024-02-15T02:31:22;45.85;;;21.50;;
25381;SDS011;16307;42.896;20.874;2024-02-15T02:34:08;43.00;;;20.42;;
25381;SDS011;16307;42.896;20.874;2024-02-15T02:36:56;42.08;;;20.45;;
25381;SDS011;16307;42.896;20.874;2024-02-15T02:39:42;38.83;;;19.30;;
25381;SDS011;16307;42.896;20.874;2024-02-15T02:42:29;36.15;;;18.42;;
25381;SDS011;16307;42.896;20.874;2024-02-15T02:45:15;33.78;;;17.35;;
25381;SDS011;16307;42.896;20.874;2024-02-15T02:48:01;33.42;;;16.65;;
25381;SDS011;16307;42.896;20.874;2024-02-15T02:50:48;34.00;;;17.30;;
25381;SDS011;16307;42.896;20.874;2024-02-15T02:53:35;37.67;;;18.75;;
25381;SDS011;16307;42.896;20.874;2024-02-15T02:56:23;30.38;;;16.60;;
25381;SDS011;16307;42.896;20.874;2024-02-15T02:59:09;38.78;;;19.50;;
25381;SDS011;16307;42.896;20.874;2024-02-15T03:01:55;42.33;;;20.80;;
25381;SDS011;16307;42.896;20.874;2024-02-15T03:04:42;42.03;;;20.08;;
25381;SDS011;16307;42.896;20.874;2024-02-15T03:07:28;44.25;;;20.63;;
25381;SDS011;16307;42.896;20.874;2024-02-15T03:10:14;45.95;;;22.88;;
25381;SDS011;16307;42.896;20.874;2024-02-15T03:13:00;48.75;;;23.15;;
25381;SDS011;16307;42.896;20.874;2024-02-15T03:15:46;43.33;;;22.52;;
25381;SDS011;16307;42.896;20.874;2024-02-15T03:18:33;47.20;;;22.77;;
25381;SDS011;16307;42.896;20.874;2024-02-15T03:21:19;46.00;;;22.98;;
25381;SDS011;16307;42.896;20.874;2024-02-15T03:24:06;38.42;;;21.02;;
25381;SDS011;16307;42.896;20.874;2024-02-15T03:26:52;43.65;;;20.27;;
25381;SDS011;16307;42.896;20.874;2024-02-15T03:29:41;42.88;;;20.70;;
25381;SDS011;16307;42.896;20.874;2024-02-15T03:32:27;39.08;;;19.15;;
25381;SDS011;16307;42.896;20.874;2024-02-15T03:35:13;40.03;;;20.02;;
25381;SDS011;16307;42.896;20.874;2024-02-15T03:38:00;38.78;;;19.52;;
25381;SDS011;16307;42.896;20.874;2024-02-15T03:40:47;40.47;;;20.30;;
25381;SDS011;16307;42.896;20.874;2024-02-15T03:43:33;41.30;;;20.48;;
25381;SDS011;16307;42.896;20.874;2024-02-15T03:46:19;41.05;;;20.13;;
25381;SDS011;16307;42.896;20.874;2024-02-15T03:49:05;39.33;;;19.98;;
25381;SDS011;16307;42.896;20.874;2024-02-15T03:51:53;48.25;;;22.83;;
25381;SDS011;16307;42.896;20.874;2024-02-15T03:54:40;68.53;;;29.15;;
25381;SDS011;16307;42.896;20.874;2024-02-15T03:57:28;91.47;;;36.05;;
25381;SDS011;16307;42.896;20.874;2024-02-15T04:00:15;107.97;;;42.78;;
25381;SDS011;16307;42.896;20.874;2024-02-15T04:03:06;91.57;;;37.15;;
25381;SDS011;16307;42.896;20.874;2024-02-15T04:05:53;93.13;;;36.63;;
25381;SDS011;16307;42.896;20.874;2024-02-15T04:08:39;71.60;;;32.40;;
25381;SDS011;16307;42.896;20.874;2024-02-15T04:11:26;74.22;;;31.77;;
25381;SDS011;16307;42.896;20.874;2024-02-15T04:14:12;65.95;;;30.27;;
25381;SDS011;16307;42.896;20.874;2024-02-15T04:16:58;69.32;;;29.90;;
25381;SDS011;16307;42.896;20.874;2024-02-15T04:19:45;74.25;;;30.35;;
25381;SDS011;16307;42.896;20.874;2024-02-15T04:22:36;67.90;;;29.35;;
25381;SDS011;16307;42.896;20.874;2024-02-15T04:25:23;65.43;;;28.13;;
25381;SDS011;16307;42.896;20.874;2024-02-15T04:28:13;61.97;;;27.38;;
25381;SDS011;16307;42.896;20.874;2024-02-15T04:30:59;60.33;;;28.65;;
25381;SDS011;16307;42.896;20.874;2024-02-15T04:33:46;63.13;;;26.98;;
25381;SDS011;16307;42.896;20.874;2024-02-15T04:36:35;54.38;;;25.73;;
25381;SDS011;16307;42.896;20.874;2024-02-15T04:39:21;56.65;;;27.00;;
25381;SDS011;16307;42.896;20.874;2024-02-15T04:42:12;73.30;;;29.33;;
25381;SDS011;16307;42.896;20.874;2024-02-15T04:44:58;64.43;;;29.35;;
25381;SDS011;16307;42.896;20.874;2024-02-15T04:47:45;60.30;;;27.45;;
25381;SDS011;16307;42.896;20.874;2024-02-15T04:50:32;78.55;;;32.60;;
25381;SDS011;16307;42.896;20.874;2024-02-15T04:53:18;72.35;;;31.48;;
25381;SDS011;16307;42.896;20.874;2024-02-15T04:56:05;62.10;;;27.80;;
25381;SDS011;16307;42.896;20.874;2024-02-15T04:58:57;61.40;;;26.35;;
25381;SDS011;16307;42.896;20.874;2024-02-15T05:01:43;51.08;;;24.15;;
25381;SDS011;16307;42.896;20.874;2024-02-15T05:04:29;49.60;;;22.05;;
25381;SDS011;16307;42.896;20.874;2024-02-15T05:07:15;45.63;;;20.48;;
25381;SDS011;16307;42.896;20.874;2024-02-15T05:10:03;40.13;;;18.27;;
25381;SDS011;16307;42.896;20.874;2024-02-15T05:12:52;34.67;;;17.27;;
25381;SDS011;16307;42.896;20.874;2024-02-15T05:15:39;33.53;;;16.38;;
25381;SDS011;16307;42.896;20.874;2024-02-15T05:18:25;35.42;;;17.48;;
25381;SDS011;16307;42.896;20.874;2024-02-15T05:21:12;33.38;;;15.73;;
25381;SDS011;16307;42.896;20.874;2024-02-15T05:23:59;33.13;;;15.68;;
25381;SDS011;16307;42.896;20.874;2024-02-15T05:26:45;35.30;;;16.67;;
25381;SDS011;16307;42.896;20.874;2024-02-15T05:29:37;31.75;;;16.40;;
25381;SDS011;16307;42.896;20.874;2024-02-15T05:32:25;31.95;;;16.35;;
25381;SDS011;16307;42.896;20.874;2024-02-15T05:35:12;35.40;;;16.33;;
25381;SDS011;16307;42.896;20.874;2024-02-15T05:37:58;32.83;;;17.45;;
25381;SDS011;16307;42.896;20.874;2024-02-15T05:40:44;33.20;;;17.38;;
25381;SDS011;16307;42.896;20.874;2024-02-15T05:43:31;31.98;;;16.92;;
25381;SDS011;16307;42.896;20.874;2024-02-15T05:46:18;36.65;;;17.77;;
25381;SDS011;16307;42.896;20.874;2024-02-15T05:49:08;45.53;;;20.23;;
25381;SDS011;16307;42.896;20.874;2024-02-15T05:54:47;61.90;;;26.02;;
25381;SDS011;16307;42.896;20.874;2024-02-15T05:57:34;89.45;;;33.05;;
25381;SDS011;16307;42.896;20.874;2024-02-15T06:00:20;105.60;;;38.13;;
25381;SDS011;16307;42.896;20.874;2024-02-15T06:03:08;82.65;;;30.83;;
25381;SDS011;16307;42.896;20.874;2024-02-15T06:05:55;82.57;;;31.30;;
25381;SDS011;16307;42.896;20.874;2024-02-15T06:08:45;69.60;;;29.00;;
25381;SDS011;16307;42.896;20.874;2024-02-15T06:11:32;61.97;;;25.38;;
25381;SDS011;16307;42.896;20.874;2024-02-15T06:14:18;70.25;;;29.42;;
25381;SDS011;16307;42.896;20.874;2024-02-15T06:17:05;65.90;;;27.73;;
25381;SDS011;16307;42.896;20.874;2024-02-15T06:19:51;58.55;;;26.80;;
25381;SDS011;16307;42.896;20.874;2024-02-15T06:22:38;64.18;;;26.73;;
25381;SDS011;16307;42.896;20.874;2024-02-15T06:25:24;60.72;;;26.40;;
25381;SDS011;16307;42.896;20.874;2024-02-15T06:28:10;72.00;;;30.95;;
25381;SDS011;16307;42.896;20.874;2024-02-15T06:31:06;71.93;;;32.78;;
25381;SDS011;16307;42.896;20.874;2024-02-15T06:34:12;65.40;;;29.63;;
25381;SDS011;16307;42.896;20.874;2024-02-15T06:37:36;72.57;;;30.58;;
25381;SDS011;16307;42.896;20.874;2024-02-15T06:40:41;67.72;;;30.67;;
25381;SDS011;16307;42.896;20.874;2024-02-15T06:43:28;66.40;;;32.25;;
25381;SDS011;16307;42.896;20.874;2024-02-15T06:46:14;73.22;;;34.33;;
25381;SDS011;16307;42.896;20.874;2024-02-15T06:49:00;70.32;;;32.05;;
25381;SDS011;16307;42.896;20.874;2024-02-15T06:51:47;70.80;;;32.38;;
25381;SDS011;16307;42.896;20.874;2024-02-15T06:54:35;67.22;;;31.05;;
25381;SDS011;16307;42.896;20.874;2024-02-15T06:57:21;66.47;;;28.23;;
25381;SDS011;16307;42.896;20.874;2024-02-15T07:00:09;48.80;;;23.25;;
25381;SDS011;16307;42.896;20.874;2024-02-15T07:03:00;48.17;;;24.63;;
25381;SDS011;16307;42.896;20.874;2024-02-15T07:05:45;42.92;;;22.38;;
25381;SDS011;16307;42.896;20.874;2024-02-15T07:08:32;45.25;;;20.08;;
25381;SDS011;16307;42.896;20.874;2024-02-15T07:11:18;48.78;;;19.50;;
25381;SDS011;16307;42.896;20.874;2024-02-15T07:14:04;47.28;;;22.30;;
25381;SDS011;16307;42.896;20.874;2024-02-15T07:16:55;49.35;;;22.85;;
25381;SDS011;16307;42.896;20.874;2024-02-15T07:19:44;49.92;;;25.67;;
25381;SDS011;16307;42.896;20.874;2024-02-15T07:22:31;77.20;;;32.83;;
25381;SDS011;16307;42.896;20.874;2024-02-15T07:25:17;71.55;;;32.42;;
25381;SDS011;16307;42.896;20.874;2024-02-15T07:28:04;81.72;;;35.70;;
25381;SDS011;16307;42.896;20.874;2024-02-15T07:30:53;76.85;;;32.67;;
25381;SDS011;16307;42.896;20.874;2024-02-15T07:33:40;60.35;;;25.88;;
25381;SDS011;16307;42.896;20.874;2024-02-15T07:36:29;55.08;;;23.77;;
25381;SDS011;16307;42.896;20.874;2024-02-15T07:39:15;59.15;;;26.25;;
25381;SDS011;16307;42.896;20.874;2024-02-15T07:42:09;62.58;;;27.83;;
25381;SDS011;16307;42.896;20.874;2024-02-15T07:44:56;81.13;;;32.63;;
25381;SDS011;16307;42.896;20.874;2024-02-15T07:47:42;69.90;;;30.58;;
25381;SDS011;16307;42.896;20.874;2024-02-15T07:50:29;82.63;;;34.10;;
25381;SDS011;16307;42.896;20.874;2024-02-15T07:53:15;66.82;;;28.42;;
25381;SDS011;16307;42.896;20.874;2024-02-15T07:56:01;53.70;;;25.08;;
25381;SDS011;16307;42.896;20.874;2024-02-15T07:58:48;51.25;;;23.17;;
25381;SDS011;16307;42.896;20.874;2024-02-15T08:01:40;46.80;;;24.13;;
25381;SDS011;16307;42.896;20.874;2024-02-15T08:04:26;40.80;;;20.95;;
25381;SDS011;16307;42.896;20.874;2024-02-15T08:07:14;48.08;;;21.38;;
25381;SDS011;16307;42.896;20.874;2024-02-15T08:10:00;38.42;;;20.00;;
25381;SDS011;16307;42.896;20.874;2024-02-15T08:12:47;41.42;;;20.15;;
25381;SDS011;16307;42.896;20.874;2024-02-15T08:15:38;39.50;;;18.67;;
25381;SDS011;16307;42.896;20.874;2024-02-15T08:18:23;39.38;;;18.17;;
25381;SDS011;16307;42.896;20.874;2024-02-15T08:21:12;35.47;;;17.27;;
25381;SDS011;16307;42.896;20.874;2024-02-15T08:23:58;35.00;;;18.42;;
25381;SDS011;16307;42.896;20.874;2024-02-15T08:26:46;39.88;;;18.67;;
25381;SDS011;16307;42.896;20.874;2024-02-15T08:29:33;38.47;;;18.60;;
25381;SDS011;16307;42.896;20.874;2024-02-15T08:32:20;43.40;;;21.02;;
25381;SDS011;16307;42.896;20.874;2024-02-15T08:35:10;19.15;;;9.90;;
25381;SDS011;16307;42.896;20.874;2024-02-15T08:37:57;20.60;;;7.75;;
25381;SDS011;16307;42.896;20.874;2024-02-15T08:40:43;19.63;;;8.35;;
25381;SDS011;16307;42.896;20.874;2024-02-15T08:43:31;16.33;;;7.28;;
25381;SDS011;16307;42.896;20.874;2024-02-15T08:46:18;9.85;;;5.20;;
25381;SDS011;16307;42.896;20.874;2024-02-15T08:49:05;10.63;;;5.35;;
25381;SDS011;16307;42.896;20.874;2024-02-15T08:51:51;14.77;;;5.80;;
25381;SDS011;16307;42.896;20.874;2024-02-15T08:54:37;10.73;;;5.13;;
25381;SDS011;16307;42.896;20.874;2024-02-15T08:57:24;9.75;;;5.00;;
25381;SDS011;16307;42.896;20.874;2024-02-15T09:00:11;8.40;;;4.80;;
25381;SDS011;16307;42.896;20.874;2024-02-15T09:03:02;11.85;;;4.47;;
25381;SDS011;16307;42.896;20.874;2024-02-15T09:05:48;10.27;;;4.90;;
25381;SDS011;16307;42.896;20.874;2024-02-15T09:08:35;8.10;;;4.43;;
25381;SDS011;16307;42.896;20.874;2024-02-15T09:11:21;11.68;;;4.78;;
25381;SDS011;16307;42.896;20.874;2024-02-15T09:14:08;7.57;;;4.60;;
25381;SDS011;16307;42.896;20.874;2024-02-15T09:16:58;7.95;;;4.57;;
25381;SDS011;16307;42.896;20.874;2024-02-15T09:19:46;9.98;;;4.53;;
25381;SDS011;16307;42.896;20.874;2024-02-15T09:22:35;8.73;;;4.35;;
25381;SDS011;16307;42.896;20.874;2024-02-15T09:25:21;11.07;;;4.57;;
25381;SDS011;16307;42.896;20.874;2024-02-15T09:28:11;9.43;;;4.35;;
25381;SDS011;16307;42.896;20.874;2024-02-15T09:30:59;10.68;;;4.70;;
25381;SDS011;16307;42.896;20.874;2024-02-15T09:33:47;8.65;;;4.60;;
25381;SDS011;16307;42.896;20.874;2024-02-15T09:36:34;10.45;;;4.95;;
25381;SDS011;16307;42.896;20.874;2024-02-15T09:39:23;8.60;;;4.60;;
25381;SDS011;16307;42.896;20.874;2024-02-15T09:42:10;5.95;;;3.78;;
25381;SDS011;16307;42.896;20.874;2024-02-15T09:44:56;7.82;;;4.15;;
25381;SDS011;16307;42.896;20.874;2024-02-15T09:47:42;9.10;;;3.85;;
25381;SDS011;16307;42.896;20.874;2024-02-15T09:50:29;9.30;;;3.58;;
25381;SDS011;16307;42.896;20.874;2024-02-15T09:53:22;9.40;;;3.95;;
25381;SDS011;16307;42.896;20.874;2024-02-15T09:56:11;11.73;;;4.68;;
25381;SDS011;16307;42.896;20.874;2024-02-15T09:58:59;8.00;;;3.92;;
25381;SDS011;16307;42.896;20.874;2024-02-15T10:01:46;9.18;;;3.67;;
25381;SDS011;16307;42.896;20.874;2024-02-15T10:04:33;7.07;;;3.90;;
25381;SDS011;16307;42.896;20.874;2024-02-15T10:07:20;5.68;;;3.35;;
25381;SDS011;16307;42.896;20.874;2024-02-15T10:10:23;7.75;;;3.47;;
25381;SDS011;16307;42.896;20.874;2024-02-15T10:13:14;8.68;;;3.95;;
25381;SDS011;16307;42.896;20.874;2024-02-15T10:16:13;6.43;;;2.90;;
25381;SDS011;16307;42.896;20.874;2024-02-15T10:19:08;7.57;;;3.22;;
25381;SDS011;16307;42.896;20.874;2024-02-15T10:22:05;6.72;;;3.20;;
25381;SDS011;16307;42.896;20.874;2024-02-15T10:24:52;8.32;;;3.45;;
25381;SDS011;16307;42.896;20.874;2024-02-15T10:27:39;7.13;;;3.35;;
25381;SDS011;16307;42.896;20.874;2024-02-15T10:30:29;8.55;;;3.03;;
25381;SDS011;16307;42.896;20.874;2024-02-15T10:33:27;5.88;;;2.58;;
25381;SDS011;16307;42.896;20.874;2024-02-15T10:36:17;5.40;;;2.42;;
25381;SDS011;16307;42.896;20.874;2024-02-15T10:39:13;5.30;;;2.78;;
25381;SDS011;16307;42.896;20.874;2024-02-15T10:42:03;5.65;;;2.70;;
25381;SDS011;16307;42.896;20.874;2024-02-15T10:44:52;6.00;;;2.40;;
25381;SDS011;16307;42.896;20.874;2024-02-15T10:47:39;6.40;;;2.60;;
25381;SDS011;16307;42.896;20.874;2024-02-15T10:50:26;6.72;;;2.67;;
25381;SDS011;16307;42.896;20.874;2024-02-15T10:53:30;7.18;;;2.90;;
25381;SDS011;16307;42.896;20.874;2024-02-15T10:56:19;5.05;;;2.55;;
25381;SDS011;16307;42.896;20.874;2024-02-15T10:59:19;9.52;;;3.17;;
25381;SDS011;16307;42.896;20.874;2024-02-15T11:02:18;8.60;;;2.92;;
25381;SDS011;16307;42.896;20.874;2024-02-15T11:05:13;7.78;;;2.92;;
25381;SDS011;16307;42.896;20.874;2024-02-15T11:08:01;7.47;;;2.72;;
25381;SDS011;16307;42.896;20.874;2024-02-15T11:10:50;4.10;;;2.47;;
25381;SDS011;16307;42.896;20.874;2024-02-15T11:13:37;7.10;;;2.90;;
25381;SDS011;16307;42.896;20.874;2024-02-15T11:16:39;6.45;;;2.53;;
25381;SDS011;16307;42.896;20.874;2024-02-15T11:22:19;7.07;;;2.20;;
25381;SDS011;16307;42.896;20.874;2024-02-15T11:25:06;5.55;;;2.63;;
25381;SDS011;16307;42.896;20.874;2024-02-15T11:27:57;7.82;;;2.60;;
25381;SDS011;16307;42.896;20.874;2024-02-15T11:30:43;8.20;;;2.53;;
25381;SDS011;16307;42.896;20.874;2024-02-15T11:33:32;4.32;;;2.50;;
25381;SDS011;16307;42.896;20.874;2024-02-15T11:36:24;4.45;;;2.53;;
25381;SDS011;16307;42.896;20.874;2024-02-15T11:42:28;3.45;;;2.15;;
25381;SDS011;16307;42.896;20.874;2024-02-15T11:45:15;4.72;;;2.22;;
25381;SDS011;16307;42.896;20.874;2024-02-15T11:48:07;4.05;;;2.22;;
25381;SDS011;16307;42.896;20.874;2024-02-15T11:53:52;7.60;;;2.55;;
25381;SDS011;16307;42.896;20.874;2024-02-15T11:56:53;5.93;;;2.20;;
25381;SDS011;16307;42.896;20.874;2024-02-15T11:59:50;5.85;;;1.95;;
25381;SDS011;16307;42.896;20.874;2024-02-15T12:02:59;4.85;;;2.65;;
25381;SDS011;16307;42.896;20.874;2024-02-15T12:06:05;3.75;;;2.17;;
25381;SDS011;16307;42.896;20.874;2024-02-15T12:09:10;6.45;;;2.35;;
25381;SDS011;16307;42.896;20.874;2024-02-15T12:12:15;4.07;;;2.00;;
25381;SDS011;16307;42.896;20.874;2024-02-15T12:15:20;6.35;;;2.00;;
25381;SDS011;16307;42.896;20.874;2024-02-15T12:18:24;4.40;;;1.92;;
25381;SDS011;16307;42.896;20.874;2024-02-15T12:21:30;3.65;;;1.95;;
25381;SDS011;16307;42.896;20.874;2024-02-15T12:24:17;2.95;;;2.00;;
25381;SDS011;16307;42.896;20.874;2024-02-15T12:27:06;5.90;;;1.98;;
25381;SDS011;16307;42.896;20.874;2024-02-15T12:29:55;4.88;;;1.85;;
25381;SDS011;16307;42.896;20.874;2024-02-15T12:32:43;3.65;;;2.28;;
25381;SDS011;16307;42.896;20.874;2024-02-15T12:35:29;5.07;;;1.88;;
25381;SDS011;16307;42.896;20.874;2024-02-15T12:38:16;3.95;;;1.88;;
25381;SDS011;16307;42.896;20.874;2024-02-15T12:41:04;3.90;;;1.80;;
25381;SDS011;16307;42.896;20.874;2024-02-15T12:44:03;5.40;;;1.88;;
25381;SDS011;16307;42.896;20.874;2024-02-15T12:46:53;4.28;;;1.67;;
25381;SDS011;16307;42.896;20.874;2024-02-15T12:49:41;2.85;;;1.70;;
25381;SDS011;16307;42.896;20.874;2024-02-15T12:52:37;7.20;;;1.70;;
25381;SDS011;16307;42.896;20.874;2024-02-15T12:55:25;9.52;;;2.40;;
25381;SDS011;16307;42.896;20.874;2024-02-15T12:58:14;4.13;;;1.77;;
25381;SDS011;16307;42.896;20.874;2024-02-15T13:01:02;5.97;;;2.00;;
25381;SDS011;16307;42.896;20.874;2024-02-15T13:03:50;3.88;;;2.22;;
25381;SDS011;16307;42.896;20.874;2024-02-15T13:06:37;6.55;;;2.15;;
25381;SDS011;16307;42.896;20.874;2024-02-15T13:09:24;4.50;;;2.10;;
25381;SDS011;16307;42.896;20.874;2024-02-15T13:12:10;6.85;;;1.95;;
25381;SDS011;16307;42.896;20.874;2024-02-15T13:14:57;6.00;;;2.08;;
25381;SDS011;16307;42.896;20.874;2024-02-15T13:17:44;2.55;;;1.67;;
25381;SDS011;16307;42.896;20.874;2024-02-15T13:20:31;3.55;;;1.58;;
25381;SDS011;16307;42.896;20.874;2024-02-15T13:23:18;6.47;;;2.00;;
25381;SDS011;16307;42.896;20.874;2024-02-15T13:26:13;2.92;;;2.00;;
25381;SDS011;16307;42.896;20.874;2024-02-15T13:29:00;4.50;;;1.80;;
25381;SDS011;16307;42.896;20.874;2024-02-15T13:31:46;4.82;;;2.20;;
25381;SDS011;16307;42.896;20.874;2024-02-15T13:34:32;3.90;;;1.83;;
25381;SDS011;16307;42.896;20.874;2024-02-15T13:37:22;3.20;;;1.88;;
25381;SDS011;16307;42.896;20.874;2024-02-15T13:40:11;5.50;;;1.77;;
25381;SDS011;16307;42.896;20.874;2024-02-15T13:43:01;4.97;;;1.63;;
25381;SDS011;16307;42.896;20.874;2024-02-15T13:45:50;4.60;;;1.63;;
25381;SDS011;16307;42.896;20.874;2024-02-15T13:48:37;5.15;;;1.70;;
25381;SDS011;16307;42.896;20.874;2024-02-15T13:51:25;3.75;;;1.75;;
25381;SDS011;16307;42.896;20.874;2024-02-15T13:54:11;3.60;;;1.83;;
25381;SDS011;16307;42.896;20.874;2024-02-15T13:56:58;2.67;;;1.55;;
25381;SDS011;16307;42.896;20.874;2024-02-15T13:59:48;4.25;;;1.92;;
25381;SDS011;16307;42.896;20.874;2024-02-15T14:02:34;3.05;;;1.55;;
25381;SDS011;16307;42.896;20.874;2024-02-15T14:05:21;3.55;;;1.52;;
25381;SDS011;16307;42.896;20.874;2024-02-15T14:08:10;4.85;;;1.50;;
25381;SDS011;16307;42.896;20.874;2024-02-15T14:10:57;2.90;;;1.27;;
25381;SDS011;16307;42.896;20.874;2024-02-15T14:13:44;2.30;;;1.30;;
25381;SDS011;16307;42.896;20.874;2024-02-15T14:16:29;5.50;;;1.58;;
25381;SDS011;16307;42.896;20.874;2024-02-15T14:19:19;7.85;;;2.20;;
25381;SDS011;16307;42.896;20.874;2024-02-15T14:22:07;5.78;;;1.80;;
25381;SDS011;16307;42.896;20.874;2024-02-15T14:24:54;5.75;;;1.73;;
25381;SDS011;16307;42.896;20.874;2024-02-15T14:27:41;4.93;;;1.92;;
25381;SDS011;16307;42.896;20.874;2024-02-15T14:30:28;3.45;;;1.60;;
25381;SDS011;16307;42.896;20.874;2024-02-15T14:33:33;7.93;;;2.20;;
25381;SDS011;16307;42.896;20.874;2024-02-15T14:36:20;2.80;;;1.50;;
25381;SDS011;16307;42.896;20.874;2024-02-15T14:39:06;5.75;;;1.95;;
25381;SDS011;16307;42.896;20.874;2024-02-15T14:41:54;6.07;;;1.70;;
25381;SDS011;16307;42.896;20.874;2024-02-15T14:44:41;4.78;;;1.75;;
25381;SDS011;16307;42.896;20.874;2024-02-15T14:47:29;5.43;;;1.77;;
25381;SDS011;16307;42.896;20.874;2024-02-15T14:50:15;5.00;;;1.48;;
25381;SDS011;16307;42.896;20.874;2024-02-15T14:53:02;6.13;;;1.95;;
25381;SDS011;16307;42.896;20.874;2024-02-15T14:55:48;3.75;;;1.67;;
25381;SDS011;16307;42.896;20.874;2024-02-15T14:58:37;4.93;;;1.67;;
25381;SDS011;16307;42.896;20.874;2024-02-15T15:01:24;3.30;;;1.75;;
25381;SDS011;16307;42.896;20.874;2024-02-15T15:04:11;5.13;;;1.95;;
25381;SDS011;16307;42.896;20.874;2024-02-15T15:06:57;4.40;;;1.48;;
25381;SDS011;16307;42.896;20.874;2024-02-15T15:10:02;5.13;;;2.25;;
25381;SDS011;16307;42.896;20.874;2024-02-15T15:13:08;3.88;;;1.75;;
25381;SDS011;16307;42.896;20.874;2024-02-15T15:15:55;5.53;;;1.73;;
25381;SDS011;16307;42.896;20.874;2024-02-15T15:18:43;3.60;;;1.98;;
25381;SDS011;16307;42.896;20.874;2024-02-15T15:21:32;5.95;;;1.73;;
25381;SDS011;16307;42.896;20.874;2024-02-15T15:24:18;4.25;;;1.85;;
25381;SDS011;16307;42.896;20.874;2024-02-15T15:27:05;12.13;;;4.72;;
25381;SDS011;16307;42.896;20.874;2024-02-15T15:29:51;10.75;;;3.97;;
25381;SDS011;16307;42.896;20.874;2024-02-15T15:32:37;10.38;;;3.90;;
25381;SDS011;16307;42.896;20.874;2024-02-15T15:35:26;10.38;;;3.78;;
25381;SDS011;16307;42.896;20.874;2024-02-15T15:38:17;6.88;;;2.78;;
25381;SDS011;16307;42.896;20.874;2024-02-15T15:41:03;7.15;;;3.55;;
25381;SDS011;16307;42.896;20.874;2024-02-15T15:43:50;6.68;;;3.10;;
25381;SDS011;16307;42.896;20.874;2024-02-15T15:46:36;7.95;;;2.97;;
25381;SDS011;16307;42.896;20.874;2024-02-15T15:49:23;10.00;;;3.00;;
25381;SDS011;16307;42.896;20.874;2024-02-15T15:52:10;11.43;;;3.88;;
25381;SDS011;16307;42.896;20.874;2024-02-15T15:54:56;7.20;;;3.75;;
25381;SDS011;16307;42.896;20.874;2024-02-15T15:57:43;6.50;;;2.97;;
25381;SDS011;16307;42.896;20.874;2024-02-15T16:00:31;5.55;;;2.92;;
25381;SDS011;16307;42.896;20.874;2024-02-15T16:03:18;7.25;;;3.10;;
25381;SDS011;16307;42.896;20.874;2024-02-15T16:06:05;7.30;;;3.63;;
25381;SDS011;16307;42.896;20.874;2024-02-15T16:08:53;6.75;;;3.42;;
25381;SDS011;16307;42.896;20.874;2024-02-15T16:11:40;6.15;;;3.42;;
25381;SDS011;16307;42.896;20.874;2024-02-15T16:14:26;6.85;;;3.20;;
25381;SDS011;16307;42.896;20.874;2024-02-15T16:17:13;7.50;;;3.35;;
25381;SDS011;16307;42.896;20.874;2024-02-15T16:20:00;7.57;;;2.97;;
25381;SDS011;16307;42.896;20.874;2024-02-15T16:22:50;8.07;;;3.10;;
25381;SDS011;16307;42.896;20.874;2024-02-15T16:25:37;5.78;;;2.90;;
25381;SDS011;16307;42.896;20.874;2024-02-15T16:28:24;5.93;;;2.97;;
25381;SDS011;16307;42.896;20.874;2024-02-15T16:31:11;7.07;;;3.53;;
25381;SDS011;16307;42.896;20.874;2024-02-15T16:33:58;8.82;;;3.28;;
25381;SDS011;16307;42.896;20.874;2024-02-15T16:36:44;6.80;;;3.35;;